This is the latest recevied weather packets stored in our database for station/object SV9TNF-2. If no packets are shown the sender has not sent any weather packets the latest 10 day(s).
| Time | Temp. | Humidity | Pressure | Rain* | Wind** | Luminosity | Snow |
|---|---|---|---|---|---|---|---|
| 1777001658 | 12.78° C | 94% | 1018 hPa | 0 mm | 4.02 m/s, 190° | - | - |
| 1777001358 | 12.78° C | 94% | 1018 hPa | 0 mm | 3.13 m/s, 234° | - | - |
| 1777001059 | 12.78° C | 94% | 1018.3 hPa | 0 mm | 2.68 m/s, 198° | - | - |
| 1777000758 | 12.78° C | 94% | 1018.3 hPa | 0 mm | 3.13 m/s, 190° | - | - |
| 1777000458 | 12.78° C | 94% | 1018.3 hPa | 0 mm | 2.24 m/s, 187° | - | - |
| 1777000158 | 12.78° C | 94% | 1018.3 hPa | 0 mm | 1.79 m/s, 209° | - | - |
| 1776999857 | 12.78° C | 94% | 1018.3 hPa | 0 mm | 3.13 m/s, 190° | - | - |
| 1776999557 | 12.78° C | 94% | 1019 hPa | 1.27 mm | 6.71 m/s, 149° | - | - |
| 1776999257 | 12.78° C | 94% | 1019 hPa | 1.27 mm | 4.47 m/s, 211° | - | - |
| 1776998957 | 12.78° C | 93% | 1019 hPa | 1.27 mm | 4.02 m/s, 176° | - | - |
| 1776998657 | 12.78° C | 93% | 1019.3 hPa | 5.08 mm | 4.02 m/s, 213° | - | - |
| 1776998357 | 12.78° C | 93% | 1019.3 hPa | 6.35 mm | 4.47 m/s, 193° | - | - |
| 1776998057 | 12.78° C | 92% | 1019.3 hPa | 5.08 mm | 4.92 m/s, 180° | - | - |
| 1776997757 | 12.78° C | 92% | 1019.3 hPa | 3.81 mm | 2.68 m/s, 242° | - | - |
| 1776997457 | 12.78° C | 92% | 1019.3 hPa | 2.54 mm | 1.79 m/s, 270° | - | - |
| 1776997156 | 12.78° C | 91% | 1019.3 hPa | 0 mm | 4.02 m/s, 199° | - | - |
| 1776996856 | 12.78° C | 91% | 1019.3 hPa | 0 mm | 4.47 m/s, 228° | - | - |
| 1776996556 | 12.78° C | 90% | 1019.3 hPa | 0 mm | 4.47 m/s, 260° | - | - |
| 1776996256 | 12.78° C | 90% | 1019.3 hPa | 0 mm | 4.02 m/s, 230° | - | - |
| 1776995956 | 12.78° C | 88% | 1019.3 hPa | 0 mm | 4.47 m/s, 198° | - | - |
| 1776995656 | 13.33° C | 87% | 1019.3 hPa | 0 mm | 3.58 m/s, 127° | - | - |
| 1776995356 | 13.33° C | 86% | 1019.3 hPa | 1.27 mm | 3.13 m/s, 84° | - | - |
| 1776995056 | 13.33° C | 85% | 1019.3 hPa | 1.27 mm | 1.79 m/s, 90° | - | - |
* Rain latest hour (hover to see other rain measurements)
** Current wind speed in m/s (hover to see current wind gust speed)